Avella, Pennsylvania
Current Conditions -  °F | °C
As of 11:03 PM on Wednesday 26 Nov 2014 (Local Time) from KHLG Reporting Station
Moderate Fog Moderate Fog  
Wind Chill: 32°   Ceiling: 400
Heat Index: 32°   Visibility: 0.5mi
Dew Point: 31°   Wind: 0mph
Humidity: 96%   Direction: NA
Pressure: 30"   Gusts: NA
Location:  40.28°N, 80.46°W
Report Text: KHLG 270403Z AUTO 00000KT 1/2SM R03/3500V4500FT FG VV004 00/M01 A3000 RMK AO2 T00001006
Loading
Personal Weather Stations






























Interactive Weather Map New forecast layout! Learn more

10-Day Weather Forecast

Advertisements
Track Severe Weather on mobile